createdAt,value
2018-08-25T00:00:19.538Z,33.7
2018-08-25T00:01:21.156Z,33.2
2018-08-25T00:02:22.768Z,33.2
2018-08-25T00:03:24.211Z,33.2
2018-08-25T00:04:25.689Z,33.7
2018-08-25T00:05:27.162Z,33.7
2018-08-25T00:06:28.467Z,33.2
2018-08-25T00:07:29.924Z,32.7
2018-08-25T00:08:31.346Z,32.7
2018-08-25T00:09:32.815Z,33.7
2018-08-25T00:10:34.257Z,32.7
2018-08-25T00:11:35.714Z,33.2
2018-08-25T00:12:37.319Z,32.3
2018-08-25T00:13:38.949Z,33.2
2018-08-25T00:14:40.572Z,33.2
2018-08-25T00:15:42.037Z,32.7
2018-08-25T00:16:43.471Z,32.3
2018-08-25T00:17:44.906Z,33.2
2018-08-25T00:18:46.503Z,32.7
2018-08-25T00:19:47.793Z,33.7
2018-08-25T00:20:49.236Z,32.7
2018-08-25T00:21:50.680Z,32.7
2018-08-25T00:22:52.292Z,32.7
2018-08-25T00:23:53.564Z,33.2
2018-08-25T00:24:55.169Z,33.2
2018-08-25T00:25:56.766Z,33.2
2018-08-25T00:26:58.220Z,32.7
2018-08-25T00:27:59.828Z,33.2
2018-08-25T00:29:01.441Z,33.2
2018-08-25T00:30:02.905Z,32.7
2018-08-25T00:31:04.547Z,32.7
2018-08-25T00:32:06.163Z,33.2
2018-08-25T00:33:07.637Z,32.7
2018-08-25T00:34:09.088Z,33.2
2018-08-25T00:35:10.523Z,32.7
2018-08-25T00:36:11.949Z,33.2
2018-08-25T00:37:13.547Z,32.3
2018-08-25T00:38:14.990Z,33.2
2018-08-25T00:39:16.608Z,33.2
2018-08-25T00:40:18.045Z,32.7
2018-08-25T00:41:19.643Z,32.3
2018-08-25T00:42:21.271Z,33.2
2018-08-25T00:43:22.575Z,32.7
2018-08-25T00:44:24.178Z,32.3
2018-08-25T00:45:25.601Z,33.2
2018-08-25T00:46:26.724Z,33.2
2018-08-25T00:47:28.344Z,32.7
2018-08-25T00:48:29.777Z,32.7
2018-08-25T00:49:31.370Z,33.2
2018-08-25T00:50:32.802Z,33.2
2018-08-25T00:51:34.251Z,32.7
2018-08-25T00:52:35.710Z,33.2
2018-08-25T00:53:37.314Z,33.2
2018-08-25T00:54:38.921Z,33.2
2018-08-25T00:55:40.538Z,32.3
2018-08-25T00:56:41.833Z,32.3
2018-08-25T00:57:43.261Z,32.7
2018-08-25T00:58:44.879Z,32.7
2018-08-25T00:59:46.524Z,32.3
2018-08-25T01:00:48.001Z,33.2
2018-08-25T01:01:49.455Z,32.7
2018-08-25T01:02:50.901Z,32.7
2018-08-25T01:03:52.341Z,32.3
2018-08-25T01:04:53.958Z,32.7
2018-08-25T01:05:55.062Z,33.7
2018-08-25T01:06:56.516Z,32.7
2018-08-25T01:07:58.126Z,29.8
2018-08-25T01:08:59.720Z,28.3
2018-08-25T01:10:01.147Z,28.3
2018-08-25T01:11:02.777Z,27.4
2018-08-25T01:12:04.366Z,28.3
2018-08-25T01:13:05.967Z,29.3
2018-08-25T01:14:07.597Z,30.8
2018-08-25T01:15:09.209Z,32.3
2018-08-25T01:16:10.674Z,33.2
2018-08-25T01:17:12.311Z,35.2
2018-08-25T01:18:13.916Z,35.7
2018-08-25T01:19:15.222Z,37.1
2018-08-25T01:20:16.826Z,36.7
2018-08-25T01:21:18.271Z,36.7
2018-08-25T01:22:19.906Z,37.6
2018-08-25T01:23:21.359Z,38.1
2018-08-25T01:24:22.978Z,39.1
2018-08-25T01:25:24.428Z,39.1
2018-08-25T01:26:25.864Z,39.1
2018-08-25T01:27:27.308Z,40.1
2018-08-25T01:28:28.965Z,40.6
2018-08-25T01:29:30.396Z,40.6
2018-08-25T01:30:31.841Z,39.1
2018-08-25T01:31:33.306Z,40.1
2018-08-25T01:32:34.783Z,40.6
2018-08-25T01:33:36.392Z,40.6
2018-08-25T01:34:37.839Z,40.1
2018-08-25T01:35:39.458Z,40.6
2018-08-25T01:36:41.039Z,40.1
2018-08-25T01:37:42.659Z,41.5
2018-08-25T01:38:44.273Z,41.1
2018-08-25T01:39:45.881Z,41.1
2018-08-25T01:40:47.490Z,41.1
2018-08-25T01:41:48.917Z,41.1
2018-08-25T01:42:50.532Z,41.1
2018-08-25T01:43:51.992Z,40.6
2018-08-25T01:44:53.446Z,41.1
2018-08-25T01:45:55.050Z,40.6
2018-08-25T01:46:56.664Z,41.5
2018-08-25T01:47:57.946Z,41.1
2018-08-25T01:48:59.560Z,40.6
2018-08-25T01:50:01.175Z,41.1
2018-08-25T01:51:02.792Z,41.1
2018-08-25T01:52:04.236Z,41.1
2018-08-25T01:53:05.679Z,41.5
2018-08-25T01:54:07.308Z,41.1
2018-08-25T01:55:08.748Z,41.1
2018-08-25T01:56:10.350Z,40.6
2018-08-25T01:57:11.966Z,41.1
2018-08-25T01:58:13.599Z,41.1
2018-08-25T01:59:15.050Z,41.5
2018-08-25T02:00:16.638Z,41.1
2018-08-25T02:01:18.111Z,40.6
2018-08-25T02:02:19.709Z,39.6
2018-08-25T02:03:21.390Z,41.1
2018-08-25T02:04:22.995Z,42
2018-08-25T02:05:24.425Z,41.1
2018-08-25T02:06:26.044Z,40.6
2018-08-25T02:07:27.320Z,41.1
2018-08-25T02:08:28.906Z,41.1
2018-08-25T02:09:30.351Z,40.6
2018-08-25T02:10:31.954Z,41.5
2018-08-25T02:11:33.042Z,40.1
2018-08-25T02:12:34.654Z,40.1
2018-08-25T02:13:36.263Z,40.6
2018-08-25T02:14:37.884Z,40.6
2018-08-25T02:15:39.531Z,40.6
2018-08-25T02:16:40.825Z,41.1
2018-08-25T02:17:42.436Z,41.5
2018-08-25T02:18:43.915Z,40.6
2018-08-25T02:19:45.501Z,40.1
2018-08-25T02:20:46.941Z,40.1
2018-08-25T02:21:48.422Z,41.1
2018-08-25T02:22:50.048Z,40.6
2018-08-25T02:23:51.670Z,40.1
2018-08-25T02:24:53.275Z,40.1
2018-08-25T02:25:54.901Z,40.1
2018-08-25T02:26:56.325Z,40.1
2018-08-25T02:27:57.788Z,41.1
2018-08-25T02:28:59.392Z,40.6
2018-08-25T02:30:01.001Z,40.1
2018-08-25T02:31:02.639Z,40.1
2018-08-25T02:32:04.249Z,39.6
2018-08-25T02:33:05.861Z,40.1
2018-08-25T02:34:07.485Z,40.1
2018-08-25T02:35:09.114Z,40.1
2018-08-25T02:36:10.553Z,39.6
2018-08-25T02:37:12.023Z,39.6
2018-08-25T02:38:13.627Z,40.6
2018-08-25T02:39:15.081Z,39.6
2018-08-25T02:40:16.552Z,40.1
2018-08-25T02:41:18.209Z,40.1
2018-08-25T02:42:19.825Z,40.6
2018-08-25T02:43:21.298Z,40.1
2018-08-25T02:44:22.576Z,39.6
2018-08-25T02:45:24.197Z,40.1
2018-08-25T02:46:25.638Z,39.6
2018-08-25T02:47:27.247Z,40.1
2018-08-25T02:48:28.761Z,40.6
2018-08-25T02:49:30.196Z,39.1
2018-08-25T02:50:31.634Z,39.6
2018-08-25T02:51:33.239Z,39.1
2018-08-25T02:52:34.853Z,39.6
2018-08-25T02:53:36.447Z,39.6
2018-08-25T02:54:38.056Z,39.6
2018-08-25T02:55:39.676Z,40.1
2018-08-25T02:56:41.288Z,39.1
2018-08-25T02:57:42.920Z,40.1
2018-08-25T02:58:44.529Z,39.1
2018-08-25T02:59:46.162Z,39.6
2018-08-25T03:00:47.771Z,39.6
2018-08-25T03:01:49.046Z,39.6
2018-08-25T03:02:50.489Z,39.1
2018-08-25T03:03:51.935Z,39.6
2018-08-25T03:04:53.544Z,39.6
2018-08-25T03:05:54.981Z,39.6
2018-08-25T03:06:56.624Z,39.1
2018-08-25T03:07:58.240Z,39.6
2018-08-25T03:08:59.857Z,39.1
2018-08-25T03:10:01.485Z,40.1
2018-08-25T03:11:02.765Z,39.6
2018-08-25T03:12:04.381Z,39.1
2018-08-25T03:13:05.814Z,39.6
2018-08-25T03:14:07.101Z,39.6
2018-08-25T03:15:08.717Z,39.1
2018-08-25T03:16:10.353Z,38.6
2018-08-25T03:17:11.973Z,39.1
2018-08-25T03:18:13.616Z,39.6
2018-08-25T03:19:15.205Z,38.1
2018-08-25T03:20:16.806Z,38.6
2018-08-25T03:21:18.416Z,39.1
2018-08-25T03:22:19.879Z,39.6
2018-08-25T03:23:21.506Z,38.6
2018-08-25T03:24:23.139Z,39.1
2018-08-25T03:25:24.745Z,39.1
2018-08-25T03:26:26.346Z,39.1
2018-08-25T03:27:27.944Z,39.6
2018-08-25T03:28:29.570Z,39.6
2018-08-25T03:29:31.008Z,39.6
2018-08-25T03:30:32.649Z,39.6
2018-08-25T03:31:34.286Z,39.6
2018-08-25T03:32:35.745Z,40.1
2018-08-25T03:33:37.181Z,39.6
2018-08-25T03:34:38.659Z,38.6
2018-08-25T03:35:40.268Z,40.6
2018-08-25T03:36:41.865Z,40.1
2018-08-25T03:37:43.469Z,40.1
2018-08-25T03:38:44.759Z,40.6
2018-08-25T03:39:46.085Z,40.6
2018-08-25T03:40:47.711Z,40.6
2018-08-25T03:41:49.166Z,41.1
2018-08-25T03:42:50.637Z,40.6
2018-08-25T03:43:52.091Z,40.6
2018-08-25T03:44:53.367Z,40.6
2018-08-25T03:45:54.985Z,41.1
2018-08-25T03:46:56.593Z,40.6
2018-08-25T03:47:58.039Z,41.5
2018-08-25T03:48:59.629Z,41.5
2018-08-25T03:50:01.240Z,41.1
2018-08-25T03:51:02.931Z,41.1
2018-08-25T03:52:04.401Z,41.1
2018-08-25T03:53:06.037Z,41.1
2018-08-25T03:54:07.475Z,41.5
2018-08-25T03:55:09.091Z,41.1
2018-08-25T03:56:10.719Z,41.5
2018-08-25T03:57:11.995Z,40.6
2018-08-25T03:58:13.503Z,41.5
2018-08-25T03:59:15.099Z,41.1
2018-08-25T04:00:16.370Z,41.1
2018-08-25T04:01:18.018Z,41.5
2018-08-25T04:02:19.450Z,41.5
2018-08-25T04:03:21.045Z,41.1
2018-08-25T04:04:22.669Z,41.5
2018-08-25T04:05:24.104Z,41.5
2018-08-25T04:06:25.719Z,41.5
2018-08-25T04:07:27.340Z,41.1
2018-08-25T04:08:28.799Z,41.5
2018-08-25T04:09:30.272Z,41.5
2018-08-25T04:10:31.890Z,41.1
2018-08-25T04:11:33.513Z,40.6
2018-08-25T04:12:34.970Z,40.6
2018-08-25T04:13:36.591Z,40.6
2018-08-25T04:14:37.877Z,41.1
2018-08-25T04:15:39.176Z,40.6
2018-08-25T04:16:40.627Z,41.1
2018-08-25T04:17:42.259Z,40.6
2018-08-25T04:18:43.856Z,40.6
2018-08-25T04:19:45.459Z,41.1
2018-08-25T04:20:46.922Z,41.1
2018-08-25T04:21:48.521Z,41.5
2018-08-25T04:22:50.003Z,40.1
2018-08-25T04:23:51.643Z,40.6
2018-08-25T04:24:53.260Z,40.1
2018-08-25T04:25:54.541Z,40.1
2018-08-25T04:26:55.990Z,39.6
2018-08-25T04:27:57.606Z,40.1
2018-08-25T04:28:58.888Z,40.6
2018-08-25T04:30:00.350Z,40.6
2018-08-25T04:31:01.824Z,40.6
2018-08-25T04:32:03.450Z,40.1
2018-08-25T04:33:04.930Z,40.1
2018-08-25T04:34:06.543Z,40.6
2018-08-25T04:35:08.193Z,40.1
2018-08-25T04:36:09.831Z,40.1
2018-08-25T04:37:11.452Z,41.1
2018-08-25T04:38:13.070Z,40.6
2018-08-25T04:39:14.557Z,40.6
2018-08-25T04:40:15.994Z,40.1
2018-08-25T04:41:18.108Z,39.6
2018-08-25T04:42:20.037Z,39.6
2018-08-25T04:43:21.567Z,39.6
2018-08-25T04:44:23.188Z,39.6
2018-08-25T04:45:24.644Z,40.1
2018-08-25T04:46:26.291Z,40.1
2018-08-25T04:47:27.907Z,40.1
2018-08-25T04:48:29.340Z,40.1
2018-08-25T04:49:30.814Z,40.1
2018-08-25T04:50:32.411Z,39.6
2018-08-25T04:51:34.004Z,39.6
2018-08-25T04:52:35.641Z,39.6
2018-08-25T04:53:37.158Z,40.1
2018-08-25T04:54:38.798Z,39.6
2018-08-25T04:55:40.606Z,40.1
2018-08-25T04:56:42.235Z,39.6
2018-08-25T04:57:43.681Z,39.6
2018-08-25T04:58:45.292Z,39.6
2018-08-25T04:59:46.917Z,40.1
2018-08-25T05:00:48.379Z,40.1
2018-08-25T05:01:50.179Z,39.1
2018-08-25T05:02:52.127Z,39.1
2018-08-25T05:03:53.771Z,39.6
2018-08-25T05:04:55.413Z,39.1
2018-08-25T05:05:57.039Z,39.6
2018-08-25T05:06:58.672Z,39.1
2018-08-25T05:08:00.106Z,39.6
2018-08-25T05:09:01.580Z,39.6
2018-08-25T05:10:02.862Z,39.1
2018-08-25T05:11:04.457Z,39.1
2018-08-25T05:12:05.898Z,39.1
2018-08-25T05:13:07.372Z,39.1
2018-08-25T05:14:09.016Z,39.1
2018-08-25T05:15:10.356Z,39.6
2018-08-25T05:16:11.951Z,39.6
2018-08-25T05:17:13.392Z,39.1
2018-08-25T05:18:14.995Z,38.6
2018-08-25T05:19:16.275Z,39.6
2018-08-25T05:20:17.909Z,39.1
2018-08-25T05:21:19.557Z,39.1
2018-08-25T05:22:21.157Z,39.1
2018-08-25T05:23:22.792Z,39.6
2018-08-25T05:24:24.255Z,39.1
2018-08-25T05:25:25.688Z,39.6
2018-08-25T05:26:27.313Z,38.6
2018-08-25T05:27:28.771Z,38.6
2018-08-25T05:28:30.384Z,39.6
2018-08-25T05:29:32.021Z,39.6
2018-08-25T05:30:33.709Z,40.6
2018-08-25T05:31:35.356Z,40.1
2018-08-25T05:32:36.803Z,40.6
2018-08-25T05:33:38.450Z,40.6
2018-08-25T05:34:40.082Z,40.6
2018-08-25T05:35:41.690Z,41.1
2018-08-25T05:36:43.161Z,40.6
2018-08-25T05:37:44.598Z,40.6
2018-08-25T05:38:46.204Z,40.6
2018-08-25T05:39:47.800Z,41.5
2018-08-25T05:40:49.236Z,40.6
2018-08-25T05:41:50.508Z,41.1
2018-08-25T05:42:52.146Z,40.6
2018-08-25T05:43:53.093Z,41.1
2018-08-25T05:44:54.709Z,41.5
2018-08-25T05:45:56.222Z,41.1
2018-08-25T05:46:57.535Z,41.5
2018-08-25T05:47:59.212Z,41.1
2018-08-25T05:49:00.666Z,41.5
2018-08-25T05:50:02.104Z,41.5
2018-08-25T05:51:03.738Z,42
2018-08-25T05:52:05.361Z,42
2018-08-25T05:53:06.834Z,41.1
2018-08-25T05:54:08.280Z,41.5
2018-08-25T05:55:09.864Z,41.5
2018-08-25T05:56:11.304Z,40.6
2018-08-25T05:57:12.765Z,41.5
2018-08-25T05:58:14.391Z,40.6
2018-08-25T05:59:15.689Z,40.6
2018-08-25T06:00:17.315Z,41.5
2018-08-25T06:01:18.931Z,40.6
2018-08-25T06:02:20.561Z,41.1
2018-08-25T06:03:22.218Z,41.1
2018-08-25T06:04:23.888Z,41.1
2018-08-25T06:05:25.347Z,41.1
2018-08-25T06:06:27.067Z,41.5
2018-08-25T06:07:28.442Z,40.1
2018-08-25T06:08:30.055Z,40.6
2018-08-25T06:09:31.477Z,41.1
2018-08-25T06:10:32.928Z,41.1
2018-08-25T06:11:34.370Z,41.5
2018-08-25T06:12:35.821Z,41.1
2018-08-25T06:13:37.957Z,40.6
2018-08-25T06:14:39.845Z,41.1
2018-08-25T06:15:41.456Z,40.1
2018-08-25T06:16:43.063Z,40.1
2018-08-25T06:17:44.853Z,40.1
2018-08-25T06:18:46.875Z,41.1
2018-08-25T06:19:48.339Z,40.6
2018-08-25T06:20:49.954Z,41.1
2018-08-25T06:21:51.587Z,39.6
2018-08-25T06:22:53.203Z,40.6
2018-08-25T06:23:54.809Z,40.1
2018-08-25T06:24:56.107Z,40.1
2018-08-25T06:25:57.562Z,40.6
2018-08-25T06:26:59.219Z,39.6
2018-08-25T06:28:00.836Z,40.1
2018-08-25T06:29:02.443Z,39.6
2018-08-25T06:30:04.136Z,40.1
2018-08-25T06:31:05.680Z,40.1
2018-08-25T06:32:07.114Z,40.1
2018-08-25T06:33:08.718Z,40.1
2018-08-25T06:34:10.332Z,40.1
2018-08-25T06:35:11.777Z,39.6
2018-08-25T06:36:13.110Z,40.1
2018-08-25T06:37:14.741Z,39.6
2018-08-25T06:38:16.195Z,40.1
2018-08-25T06:39:17.798Z,39.1
2018-08-25T06:40:19.421Z,40.1
2018-08-25T06:41:20.877Z,39.6
2018-08-25T06:42:22.496Z,40.1
2018-08-25T06:43:24.255Z,39.6
2018-08-25T06:44:26.015Z,39.6
2018-08-25T06:45:27.467Z,40.1
2018-08-25T06:46:28.607Z,39.6
2018-08-25T06:47:30.058Z,39.6
2018-08-25T06:48:31.586Z,39.6
2018-08-25T06:49:33.193Z,40.1
2018-08-25T06:50:34.805Z,39.6
2018-08-25T06:51:36.419Z,39.6
2018-08-25T06:52:37.862Z,38.6
2018-08-25T06:53:39.491Z,40.1
2018-08-25T06:54:41.132Z,39.1
2018-08-25T06:55:42.750Z,39.6
2018-08-25T06:56:44.435Z,39.6
2018-08-25T06:57:45.878Z,39.6
2018-08-25T06:58:47.308Z,39.1
2018-08-25T06:59:48.928Z,39.1
2018-08-25T07:00:50.628Z,39.1
2018-08-25T07:01:52.283Z,38.6
2018-08-25T07:02:53.733Z,39.1
2018-08-25T07:03:55.191Z,39.1
2018-08-25T07:04:56.649Z,39.1
2018-08-25T07:05:58.537Z,38.6
2018-08-25T07:07:00.349Z,39.1
2018-08-25T07:08:01.982Z,38.6
2018-08-25T07:09:03.272Z,39.6
2018-08-25T07:10:04.909Z,39.1
2018-08-25T07:11:06.547Z,40.1
2018-08-25T07:12:08.207Z,39.6
2018-08-25T07:13:09.864Z,39.1
2018-08-25T07:14:11.488Z,40.1
2018-08-25T07:15:13.156Z,39.6
2018-08-25T07:16:14.598Z,40.1
2018-08-25T07:17:16.213Z,39.1
2018-08-25T07:18:17.842Z,39.6
2018-08-25T07:19:19.314Z,40.1
2018-08-25T07:20:20.936Z,39.6
2018-08-25T07:21:22.392Z,40.6
2018-08-25T07:22:23.830Z,40.1
2018-08-25T07:23:25.475Z,40.1
2018-08-25T07:24:27.119Z,40.6
2018-08-25T07:25:28.414Z,41.1
2018-08-25T07:26:30.022Z,40.6
2018-08-25T07:27:31.635Z,41.1
2018-08-25T07:28:33.104Z,40.1
2018-08-25T07:29:34.738Z,41.1
2018-08-25T07:30:36.180Z,41.5
2018-08-25T07:31:37.644Z,41.1
2018-08-25T07:32:39.112Z,41.1
2018-08-25T07:33:40.727Z,41.1
2018-08-25T07:34:42.177Z,41.1
2018-08-25T07:35:43.637Z,41.1
2018-08-25T07:36:45.243Z,41.5
2018-08-25T07:37:46.883Z,41.1
2018-08-25T07:38:48.481Z,41.5
2018-08-25T07:39:49.955Z,41.1
2018-08-25T07:40:51.411Z,41.1
2018-08-25T07:41:53.018Z,41.1
2018-08-25T07:42:54.783Z,41.1
2018-08-25T07:43:56.427Z,41.1
2018-08-25T07:44:57.712Z,41.1
2018-08-25T07:45:59.181Z,41.1
2018-08-25T07:47:00.494Z,41.5
2018-08-25T07:48:01.816Z,41.1
2018-08-25T07:49:03.436Z,41.1
2018-08-25T07:50:04.932Z,40.1
2018-08-25T07:51:06.758Z,41.1
2018-08-25T07:52:08.416Z,41.1
2018-08-25T07:53:10.072Z,41.1
2018-08-25T07:54:11.702Z,41.5
2018-08-25T07:55:13.326Z,41.1
2018-08-25T07:56:14.819Z,41.1
2018-08-25T07:57:16.414Z,41.5
2018-08-25T07:58:18.078Z,41.5
2018-08-25T07:59:20.016Z,40.6
2018-08-25T08:00:21.756Z,40.6
2018-08-25T08:01:23.211Z,41.1
2018-08-25T08:02:24.682Z,40.6
2018-08-25T08:03:26.316Z,41.1
2018-08-25T08:04:27.945Z,41.1
2018-08-25T08:05:29.626Z,41.1
2018-08-25T08:06:31.459Z,40.6
2018-08-25T08:07:33.081Z,40.6
2018-08-25T08:08:34.546Z,40.1
2018-08-25T08:09:36.164Z,40.6
2018-08-25T08:10:37.793Z,40.6
2018-08-25T08:11:39.288Z,40.1
2018-08-25T08:12:41.033Z,41.1
2018-08-25T08:13:42.500Z,40.6
2018-08-25T08:14:43.951Z,40.1
2018-08-25T08:15:45.579Z,40.1
2018-08-25T08:16:47.248Z,40.1
2018-08-25T08:17:48.872Z,40.1
2018-08-25T08:18:50.325Z,40.1
2018-08-25T08:19:51.763Z,40.1
2018-08-25T08:20:53.206Z,40.6
2018-08-25T08:21:54.700Z,40.1
2018-08-25T08:22:55.983Z,39.6
2018-08-25T08:23:57.614Z,40.6
2018-08-25T08:24:59.215Z,40.1
2018-08-25T08:26:00.828Z,40.1
2018-08-25T08:27:02.289Z,40.1
2018-08-25T08:28:03.923Z,39.6
2018-08-25T08:29:05.539Z,39.1
2018-08-25T08:30:07.147Z,40.1
2018-08-25T08:31:08.597Z,40.1
2018-08-25T08:32:10.061Z,39.6
2018-08-25T08:33:11.355Z,39.6
2018-08-25T08:34:13.016Z,40.1
2018-08-25T08:35:14.651Z,39.1
2018-08-25T08:36:15.937Z,40.1
2018-08-25T08:37:17.392Z,39.6
2018-08-25T08:38:18.859Z,39.1
2018-08-25T08:39:20.603Z,40.1
2018-08-25T08:40:22.408Z,40.6
2018-08-25T08:41:23.867Z,39.6
2018-08-25T08:42:25.897Z,40.1
2018-08-25T08:43:28.061Z,39.1
2018-08-25T08:44:29.698Z,40.1
2018-08-25T08:45:31.378Z,39.6
2018-08-25T08:46:33.224Z,40.1
2018-08-25T08:47:35.093Z,40.1
2018-08-25T08:48:37.109Z,39.1
2018-08-25T08:49:47.917Z,39.1
2018-08-25T08:50:49.210Z,39.1
2018-08-25T08:51:50.857Z,39.1
2018-08-25T08:52:52.311Z,39.6
2018-08-25T08:53:53.967Z,39.1
2018-08-25T08:54:55.609Z,40.1
2018-08-25T08:55:57.233Z,39.1
2018-08-25T08:56:58.848Z,39.1
2018-08-25T08:58:00.498Z,40.1
2018-08-25T08:59:02.137Z,39.6
2018-08-25T09:00:03.758Z,39.6
2018-08-25T09:01:05.378Z,39.6
2018-08-25T09:02:06.706Z,39.6
2018-08-25T09:03:08.317Z,40.1
2018-08-25T09:04:09.937Z,39.6
2018-08-25T09:05:11.228Z,39.1
2018-08-25T09:06:12.725Z,39.6
2018-08-25T09:07:14.336Z,39.6
2018-08-25T09:08:15.965Z,40.1
2018-08-25T09:09:17.413Z,39.1
2018-08-25T09:10:18.858Z,40.1
2018-08-25T09:11:20.653Z,41.1
2018-08-25T09:12:22.218Z,40.1
2018-08-25T09:13:23.848Z,41.1
2018-08-25T09:14:25.456Z,40.6
2018-08-25T09:15:26.933Z,40.6
2018-08-25T09:16:28.210Z,41.1
2018-08-25T09:17:29.641Z,41.1
2018-08-25T09:18:31.269Z,41.1
2018-08-25T09:19:33.622Z,40.6
2018-08-25T09:20:35.503Z,41.5
2018-08-25T09:21:36.962Z,41.1
2018-08-25T09:22:38.398Z,41.5
2018-08-25T09:23:40.004Z,42
2018-08-25T09:24:41.593Z,41.5
2018-08-25T09:25:43.050Z,41.5
2018-08-25T09:26:44.779Z,41.5
2018-08-25T09:27:46.449Z,41.5
2018-08-25T09:28:48.071Z,41.5
2018-08-25T09:29:49.699Z,41.5
2018-08-25T09:30:51.308Z,41.5
2018-08-25T09:31:52.926Z,41.5
2018-08-25T09:32:54.548Z,41.5
2018-08-25T09:33:56.160Z,41.5
2018-08-25T09:34:57.619Z,41.1
2018-08-25T09:36:00.486Z,41.5
2018-08-25T09:37:02.827Z,41.5
2018-08-25T09:38:04.450Z,41.1
2018-08-25T09:39:05.921Z,41.5
2018-08-25T09:40:07.363Z,41.1
2018-08-25T09:41:08.669Z,41.1
2018-08-25T09:42:09.840Z,41.5
2018-08-25T09:43:11.561Z,41.1
2018-08-25T09:44:13.278Z,41.1
2018-08-25T09:45:14.922Z,41.1
2018-08-25T09:46:16.569Z,40.6
2018-08-25T09:47:18.205Z,41.1
2018-08-25T09:48:19.818Z,40.6
2018-08-25T09:49:21.292Z,41.1
2018-08-25T09:50:22.763Z,41.5
2018-08-25T09:51:24.244Z,41.5
2018-08-25T09:52:26.009Z,41.1
2018-08-25T09:53:27.583Z,41.1
2018-08-25T09:54:29.304Z,41.1
2018-08-25T09:55:30.806Z,41.1
2018-08-25T09:56:32.447Z,41.1
2018-08-25T09:57:33.894Z,41.1
2018-08-25T09:58:35.216Z,40.6
2018-08-25T09:59:36.507Z,40.6
2018-08-25T10:00:37.976Z,40.6
2018-08-25T10:01:39.607Z,41.1
2018-08-25T10:02:41.205Z,40.6
2018-08-25T10:03:42.866Z,41.1
2018-08-25T10:04:44.171Z,40.1
2018-08-25T10:05:45.656Z,40.6
2018-08-25T10:06:47.303Z,40.6
2018-08-25T10:07:48.906Z,40.1
2018-08-25T10:08:50.376Z,39.6
2018-08-25T10:09:51.996Z,40.6
2018-08-25T10:10:53.879Z,40.6
2018-08-25T10:11:55.705Z,40.6
2018-08-25T10:12:57.370Z,40.1
2018-08-25T10:13:58.987Z,40.1
2018-08-25T10:15:00.637Z,40.1
2018-08-25T10:16:02.155Z,40.6
2018-08-25T10:17:03.658Z,39.6
2018-08-25T10:18:05.301Z,39.6
2018-08-25T10:19:06.985Z,40.1
2018-08-25T10:20:08.589Z,39.6
2018-08-25T10:21:10.205Z,40.1
2018-08-25T10:22:11.843Z,40.1
2018-08-25T10:23:13.434Z,40.1
2018-08-25T10:24:15.181Z,39.6
2018-08-25T10:25:16.639Z,40.1
2018-08-25T10:26:18.257Z,39.6
2018-08-25T10:27:19.733Z,40.1
2018-08-25T10:28:21.398Z,39.1
2018-08-25T10:29:23.053Z,39.6
2018-08-25T10:30:24.497Z,40.1
2018-08-25T10:31:25.953Z,40.1
2018-08-25T10:32:27.420Z,39.1
2018-08-25T10:33:29.072Z,39.6
2018-08-25T10:34:30.689Z,40.1
2018-08-25T10:35:32.474Z,40.1
2018-08-25T10:36:34.217Z,39.1
2018-08-25T10:37:35.888Z,39.6
2018-08-25T10:38:37.505Z,39.1
2018-08-25T10:39:39.165Z,40.1
2018-08-25T10:40:40.643Z,39.1
2018-08-25T10:41:42.511Z,39.1
2018-08-25T10:42:44.388Z,38.6
2018-08-25T10:43:46.049Z,40.1
2018-08-25T10:44:47.702Z,39.1
2018-08-25T10:45:49.312Z,39.6
2018-08-25T10:46:50.787Z,39.1
2018-08-25T10:47:52.382Z,39.1
2018-08-25T10:48:54.018Z,38.6
2018-08-25T10:49:55.473Z,39.6
2018-08-25T10:50:56.941Z,39.6
2018-08-25T10:51:58.239Z,39.1
2018-08-25T10:52:59.575Z,39.1
2018-08-25T10:54:01.738Z,39.6
2018-08-25T10:55:03.743Z,39.6
2018-08-25T10:56:05.383Z,39.6
2018-08-25T10:57:06.860Z,39.6
2018-08-25T10:58:08.411Z,39.6
2018-08-25T10:59:10.038Z,39.1
2018-08-25T11:00:11.920Z,39.1
2018-08-25T11:01:13.860Z,39.1
2018-08-25T11:02:15.819Z,39.6
2018-08-25T11:03:17.271Z,40.1
2018-08-25T11:04:18.562Z,39.6
2018-08-25T11:05:20.173Z,40.1
2018-08-25T11:06:21.645Z,40.1
2018-08-25T11:07:23.026Z,40.1
2018-08-25T11:08:24.223Z,41.1
2018-08-25T11:09:25.738Z,40.6
2018-08-25T11:10:27.208Z,40.6
2018-08-25T11:11:28.813Z,40.6
2018-08-25T11:12:30.260Z,40.6
2018-08-25T11:13:31.870Z,40.6
2018-08-25T11:14:33.357Z,41.5
2018-08-25T11:15:34.978Z,40.6
2018-08-25T11:16:36.761Z,40.6
2018-08-25T11:17:38.472Z,41.5
2018-08-25T11:18:40.089Z,40.6
2018-08-25T11:19:41.696Z,42.5
2018-08-25T11:20:43.323Z,41.1
2018-08-25T11:21:44.784Z,41.1
2018-08-25T11:22:46.387Z,42
2018-08-25T11:23:48.476Z,41.5
2018-08-25T11:24:50.513Z,41.1
2018-08-25T11:25:52.149Z,42
2018-08-25T11:26:53.791Z,40.6
2018-08-25T11:27:55.254Z,41.5
2018-08-25T11:28:56.929Z,41.1
2018-08-25T11:29:58.417Z,41.1
2018-08-25T11:31:00.031Z,40.6
2018-08-25T11:32:01.675Z,41.5
2018-08-25T11:33:03.113Z,41.5
2018-08-25T11:34:04.723Z,42
2018-08-25T11:35:06.535Z,41.1
2018-08-25T11:36:08.014Z,40.1
2018-08-25T11:37:09.708Z,41.5
2018-08-25T11:38:12.035Z,41.5
2018-08-25T11:39:13.760Z,41.1
2018-08-25T11:40:15.377Z,41.5
2018-08-25T11:41:16.831Z,40.6
2018-08-25T11:42:18.453Z,41.1
2018-08-25T11:43:20.088Z,41.1
2018-08-25T11:44:21.717Z,41.5
2018-08-25T11:45:23.375Z,41.1
2018-08-25T11:46:24.842Z,41.1
2018-08-25T11:47:26.137Z,41.5
2018-08-25T11:48:27.582Z,41.1
2018-08-25T11:49:29.218Z,41.1
2018-08-25T11:50:30.328Z,40.6
2018-08-25T11:51:31.609Z,40.6
2018-08-25T11:52:33.217Z,40.1
2018-08-25T11:53:34.699Z,40.6
2018-08-25T11:54:36.153Z,41.1
2018-08-25T11:55:37.607Z,40.6
2018-08-25T11:56:39.082Z,41.1
2018-08-25T11:57:40.539Z,40.6
2018-08-25T11:58:42.172Z,39.6
2018-08-25T11:59:43.602Z,40.1
2018-08-25T12:00:45.192Z,41.1
2018-08-25T12:01:46.818Z,40.6
2018-08-25T12:02:48.439Z,40.6
2018-08-25T12:03:50.058Z,40.6
2018-08-25T12:04:51.711Z,39.6
2018-08-25T12:05:53.165Z,40.1
2018-08-25T12:06:54.636Z,39.6
2018-08-25T12:07:56.300Z,40.6
2018-08-25T12:08:57.773Z,40.6
2018-08-25T12:09:59.425Z,39.6
2018-08-25T12:11:01.097Z,40.6
2018-08-25T12:12:02.537Z,40.1
2018-08-25T12:13:04.185Z,39.6
2018-08-25T12:14:05.795Z,40.1
2018-08-25T12:15:07.464Z,40.6
2018-08-25T12:16:09.224Z,40.1
2018-08-25T12:17:10.755Z,40.6
2018-08-25T12:18:12.380Z,40.6
2018-08-25T12:19:14.002Z,39.6
2018-08-25T12:20:15.342Z,40.1
2018-08-25T12:21:16.955Z,40.1
2018-08-25T12:22:18.417Z,39.6
2018-08-25T12:23:20.044Z,40.1
2018-08-25T12:24:21.676Z,39.6
2018-08-25T12:25:23.141Z,39.6
2018-08-25T12:26:24.665Z,39.6
2018-08-25T12:27:26.344Z,40.1
2018-08-25T12:28:27.821Z,39.6
2018-08-25T12:29:29.102Z,39.6
2018-08-25T12:30:30.954Z,39.6
2018-08-25T12:31:32.682Z,38.6
2018-08-25T12:32:34.334Z,39.6
2018-08-25T12:33:36.404Z,39.6
2018-08-25T12:34:38.221Z,39.6
2018-08-25T12:35:39.854Z,40.1
2018-08-25T12:36:41.328Z,39.6
2018-08-25T12:37:42.959Z,40.1
2018-08-25T12:38:44.444Z,39.1
2018-08-25T12:39:46.099Z,40.1
2018-08-25T12:40:47.745Z,39.6
2018-08-25T12:41:49.209Z,39.1
2018-08-25T12:42:50.834Z,39.6
2018-08-25T12:43:52.464Z,40.1
2018-08-25T12:44:54.253Z,39.6
2018-08-25T12:45:56.040Z,40.6
2018-08-25T12:46:57.577Z,39.6
2018-08-25T12:47:59.234Z,39.6
2018-08-25T12:49:00.885Z,39.1
2018-08-25T12:50:02.337Z,39.1
2018-08-25T12:51:04.143Z,39.6
2018-08-25T12:52:05.842Z,39.6
2018-08-25T12:53:07.486Z,39.6
2018-08-25T12:54:09.113Z,39.1
2018-08-25T12:55:10.873Z,39.1
2018-08-25T12:56:12.532Z,39.1
2018-08-25T12:57:14.168Z,40.1
2018-08-25T12:58:15.820Z,39.1
2018-08-25T12:59:17.656Z,39.1
2018-08-25T13:00:19.665Z,39.6
2018-08-25T13:01:21.280Z,39.1
2018-08-25T13:02:22.970Z,39.6
2018-08-25T13:03:24.818Z,39.6
2018-08-25T13:04:26.306Z,39.6
2018-08-25T13:05:27.907Z,40.6
2018-08-25T13:06:29.371Z,39.1
2018-08-25T13:07:31.461Z,40.1
2018-08-25T13:08:33.456Z,40.1
2018-08-25T13:09:35.083Z,40.1
2018-08-25T13:10:36.377Z,40.6
2018-08-25T13:11:37.995Z,40.6
2018-08-25T13:12:39.664Z,40.1
2018-08-25T13:13:41.304Z,41.5
2018-08-25T13:14:42.917Z,41.5
2018-08-25T13:15:44.315Z,41.1
2018-08-25T13:16:45.818Z,42
2018-08-25T13:17:47.444Z,42
2018-08-25T13:18:49.292Z,42
2018-08-25T13:19:51.146Z,41.1
2018-08-25T13:20:52.801Z,41.5
2018-08-25T13:21:54.646Z,42.5
2018-08-25T13:22:56.509Z,41.5
2018-08-25T13:23:57.992Z,41.1
2018-08-25T13:25:00.030Z,41.1
2018-08-25T13:26:01.760Z,41.5
2018-08-25T13:27:03.401Z,40.6
2018-08-25T13:28:05.031Z,41.1
2018-08-25T13:29:06.648Z,41.1
2018-08-25T13:30:08.290Z,41.1
2018-08-25T13:31:10.437Z,41.5
2018-08-25T13:32:12.288Z,41.1
2018-08-25T13:33:13.913Z,41.1
2018-08-25T13:34:15.523Z,41.5
2018-08-25T13:35:17.133Z,41.1
2018-08-25T13:36:18.625Z,41.1
2018-08-25T13:37:20.223Z,41.1
2018-08-25T13:38:21.706Z,41.1
2018-08-25T13:39:23.316Z,41.5
2018-08-25T13:40:24.958Z,41.1